createdAt,value
2023-06-24T00:01:48.429Z,80.66
2023-06-24T00:04:18.033Z,80.67
2023-06-24T00:06:45.824Z,80.97
2023-06-24T00:09:13.376Z,81.31
2023-06-24T00:11:41.323Z,82.03
2023-06-24T00:14:09.285Z,81.76
2023-06-24T00:16:37.244Z,81.82
2023-06-24T00:19:05.118Z,81.73
2023-06-24T00:21:32.872Z,82.18
2023-06-24T00:24:03.671Z,81.66
2023-06-24T00:26:32.867Z,81.91
2023-06-24T00:29:00.485Z,81.93
2023-06-24T00:31:28.077Z,82.09
2023-06-24T00:33:56.273Z,82.51
2023-06-24T00:38:51.976Z,82.75
2023-06-24T00:41:20.676Z,82.85
2023-06-24T00:43:48.699Z,82.89
2023-06-24T00:46:16.730Z,82.27
2023-06-24T00:48:44.722Z,82.05
2023-06-24T00:51:12.302Z,81.57
2023-06-24T00:53:40.109Z,82.02
2023-06-24T00:56:08.003Z,81.41
2023-06-24T00:58:38.271Z,80.50
2023-06-24T01:01:06.946Z,79.57
2023-06-24T01:03:35.833Z,78.18
2023-06-24T01:06:03.585Z,77.93
2023-06-24T01:08:31.272Z,77.55
2023-06-24T01:10:59.168Z,77.56
2023-06-24T01:13:26.964Z,77.73
2023-06-24T01:15:54.828Z,77.21
2023-06-24T01:18:33.766Z,77.21
2023-06-24T01:21:14.941Z,76.04
2023-06-24T01:24:12.129Z,76.23
2023-06-24T01:26:54.664Z,76.22
2023-06-24T01:29:46.184Z,76.82
2023-06-24T01:32:39.951Z,75.70
2023-06-24T01:35:17.194Z,75.81
2023-06-24T01:37:58.166Z,75.56
2023-06-24T01:40:34.333Z,75.05
2023-06-24T01:43:04.579Z,74.89
2023-06-24T01:45:54.059Z,75.43
2023-06-24T01:48:28.943Z,74.39
2023-06-24T01:51:01.992Z,74.60
2023-06-24T01:53:32.324Z,75.97
2023-06-24T01:56:01.837Z,76.08
2023-06-24T01:58:32.098Z,76.14
2023-06-24T02:01:01.748Z,76.88
2023-06-24T02:03:30.696Z,78.08
2023-06-24T02:05:59.771Z,78.24
2023-06-24T02:08:30.285Z,78.73
2023-06-24T02:11:01.002Z,78.56
2023-06-24T02:13:33.645Z,79.28
2023-06-24T02:16:04.127Z,79.74
2023-06-24T02:18:32.065Z,78.98
2023-06-24T02:21:01.243Z,80.12
2023-06-24T02:23:30.221Z,79.46
2023-06-24T02:25:59.237Z,80.16
2023-06-24T02:28:27.289Z,79.12
2023-06-24T02:30:55.522Z,79.41
2023-06-24T02:33:24.094Z,80.37
2023-06-24T02:35:51.764Z,79.48
2023-06-24T02:38:19.459Z,78.93
2023-06-24T02:40:49.431Z,79.53
2023-06-24T02:43:18.441Z,80.44
2023-06-24T02:45:49.195Z,79.99
2023-06-24T02:48:20.436Z,80.04
2023-06-24T02:50:48.970Z,79.97
2023-06-24T02:53:17.193Z,80.05
2023-06-24T02:55:46.750Z,80.50
2023-06-24T02:58:15.249Z,80.87
2023-06-24T03:00:44.112Z,81.31
2023-06-24T03:03:12.876Z,81.92
2023-06-24T03:05:40.904Z,81.76
2023-06-24T03:08:09.183Z,81.71
2023-06-24T03:10:38.882Z,81.46
2023-06-24T03:13:07.187Z,81.45
2023-06-24T03:15:37.034Z,81.83
2023-06-24T03:18:04.872Z,82.64
2023-06-24T03:20:39.969Z,82.58
2023-06-24T03:23:09.256Z,82.67
2023-06-24T03:25:37.237Z,82.85
2023-06-24T03:28:08.560Z,83.58
2023-06-24T03:30:37.125Z,83.59
2023-06-24T03:33:04.826Z,83.75
2023-06-24T03:35:34.212Z,84.16
2023-06-24T03:38:02.962Z,83.71
2023-06-24T03:40:31.770Z,83.62
2023-06-24T03:42:59.337Z,82.38
2023-06-24T03:45:27.176Z,83.32
2023-06-24T03:47:55.067Z,82.66
2023-06-24T03:50:22.654Z,82.69
2023-06-24T03:52:50.603Z,82.78
2023-06-24T03:55:18.317Z,82.70
2023-06-24T03:57:45.872Z,83.00
2023-06-24T04:00:17.374Z,81.75
2023-06-24T04:02:46.579Z,81.44
2023-06-24T04:05:14.541Z,81.34
2023-06-24T04:07:48.383Z,82.33
2023-06-24T04:10:19.333Z,82.33
2023-06-24T04:12:47.238Z,81.74
2023-06-24T04:15:15.042Z,80.16
2023-06-24T04:17:43.000Z,81.23
2023-06-24T04:20:11.228Z,82.58
2023-06-24T04:22:40.847Z,80.79
2023-06-24T04:25:09.929Z,81.07
2023-06-24T04:27:37.828Z,80.79
2023-06-24T04:30:06.430Z,79.44
2023-06-24T04:32:34.484Z,79.20
2023-06-24T04:35:02.322Z,78.62
2023-06-24T04:37:30.008Z,78.28
2023-06-24T04:39:58.449Z,78.35
2023-06-24T04:42:25.994Z,78.48
2023-06-24T04:44:53.515Z,78.04
2023-06-24T04:47:21.411Z,75.62
2023-06-24T04:49:49.000Z,77.06
2023-06-24T04:52:17.133Z,76.66
2023-06-24T04:54:44.972Z,75.78
2023-06-24T04:57:31.281Z,76.77
2023-06-24T04:59:59.753Z,75.18
2023-06-24T05:02:27.378Z,75.11
2023-06-24T05:04:55.399Z,74.60
2023-06-24T05:07:23.411Z,73.24
2023-06-24T05:09:52.486Z,73.62
2023-06-24T05:12:20.063Z,73.53
2023-06-24T05:14:55.374Z,74.23
2023-06-24T05:17:23.049Z,75.46
2023-06-24T05:19:51.072Z,75.44
2023-06-24T05:22:18.670Z,76.67
2023-06-24T05:24:46.213Z,76.70
2023-06-24T05:27:14.136Z,76.58
2023-06-24T05:29:41.743Z,77.66
2023-06-24T05:32:09.420Z,78.26
2023-06-24T05:34:37.508Z,78.80
2023-06-24T05:37:05.065Z,76.81
2023-06-24T05:39:32.919Z,79.28
2023-06-24T05:42:00.871Z,79.15
2023-06-24T05:44:28.424Z,76.55
2023-06-24T05:46:55.999Z,76.37
2023-06-24T05:49:23.879Z,76.47
2023-06-24T05:51:51.517Z,75.39
2023-06-24T05:54:19.148Z,75.51
2023-06-24T05:56:46.969Z,76.08
2023-06-24T05:59:14.476Z,74.58
2023-06-24T06:01:42.169Z,75.96
2023-06-24T06:04:10.206Z,74.76
2023-06-24T06:06:37.918Z,73.11
2023-06-24T06:09:07.576Z,72.62
2023-06-24T06:11:37.925Z,71.87
2023-06-24T06:14:05.488Z,71.32
2023-06-24T06:16:34.501Z,70.91
2023-06-24T06:19:02.928Z,70.70
2023-06-24T06:21:31.199Z,70.19
2023-06-24T06:24:02.151Z,69.42
2023-06-24T06:26:33.914Z,68.51
2023-06-24T06:29:02.157Z,70.01
2023-06-24T06:31:30.818Z,68.33
2023-06-24T06:33:58.795Z,68.84
2023-06-24T06:36:27.720Z,68.14
2023-06-24T06:38:56.245Z,67.07
2023-06-24T06:41:25.810Z,65.95
2023-06-24T06:43:54.889Z,65.80
2023-06-24T06:46:22.466Z,65.03
2023-06-24T06:48:50.524Z,65.37
2023-06-24T06:51:20.058Z,63.94
2023-06-24T06:53:47.645Z,64.29
2023-06-24T06:56:25.599Z,63.56
2023-06-24T06:58:53.960Z,63.66
2023-06-24T07:01:21.899Z,62.70
2023-06-24T07:03:51.391Z,62.73
2023-06-24T07:06:20.784Z,62.49
2023-06-24T07:08:48.722Z,62.56
2023-06-24T07:11:16.319Z,62.06
2023-06-24T07:13:43.958Z,61.70
2023-06-24T07:16:11.855Z,60.94
2023-06-24T07:18:39.407Z,60.13
2023-06-24T07:21:06.982Z,60.02
2023-06-24T07:23:34.855Z,59.37
2023-06-24T07:26:04.253Z,59.85
2023-06-24T07:28:32.165Z,59.63
2023-06-24T07:31:00.084Z,59.12
2023-06-24T07:33:27.734Z,58.77
2023-06-24T07:35:55.278Z,58.89
2023-06-24T07:38:23.163Z,58.41
2023-06-24T07:40:50.748Z,58.52
2023-06-24T07:43:18.297Z,57.54
2023-06-24T07:45:46.141Z,58.43
2023-06-24T07:48:13.718Z,58.78
2023-06-24T07:50:41.285Z,59.50
2023-06-24T07:53:09.125Z,60.27
2023-06-24T07:55:36.930Z,60.32
2023-06-24T07:58:07.469Z,59.56
2023-06-24T08:00:36.933Z,60.36
2023-06-24T08:03:06.210Z,60.51
2023-06-24T08:05:34.072Z,60.29
2023-06-24T08:08:01.883Z,60.69
2023-06-24T08:10:29.746Z,60.71
2023-06-24T08:12:57.252Z,61.09
2023-06-24T08:15:24.776Z,60.61
2023-06-24T08:17:53.805Z,60.82
2023-06-24T08:20:22.760Z,60.50
2023-06-24T08:22:50.568Z,60.64
2023-06-24T08:25:18.597Z,61.17
2023-06-24T08:27:47.820Z,61.06
2023-06-24T08:30:19.220Z,61.35
2023-06-24T08:32:47.130Z,61.49
2023-06-24T08:35:14.795Z,61.54
2023-06-24T08:37:42.394Z,61.06
2023-06-24T08:40:10.643Z,61.74
2023-06-24T08:42:38.154Z,61.55
2023-06-24T08:45:06.159Z,61.76
2023-06-24T08:47:34.838Z,61.44
2023-06-24T08:50:09.355Z,60.84
2023-06-24T08:52:39.330Z,60.43
2023-06-24T08:55:09.962Z,60.41
2023-06-24T08:57:37.969Z,60.94
2023-06-24T09:00:10.083Z,60.23
2023-06-24T09:02:39.673Z,60.48
2023-06-24T09:05:08.544Z,60.92
2023-06-24T09:07:36.391Z,61.43
2023-06-24T09:10:04.948Z,60.49
2023-06-24T09:12:34.219Z,60.63
2023-06-24T09:15:01.822Z,60.58
2023-06-24T09:17:31.439Z,60.21
2023-06-24T09:20:06.968Z,59.58
2023-06-24T09:22:34.902Z,59.92
2023-06-24T09:25:04.194Z,59.17
2023-06-24T09:27:33.337Z,57.59
2023-06-24T09:30:01.346Z,57.39
2023-06-24T09:32:32.457Z,57.38
2023-06-24T09:35:03.142Z,58.17
2023-06-24T09:37:33.568Z,57.96
2023-06-24T09:40:03.482Z,58.25
2023-06-24T09:42:31.335Z,59.10
2023-06-24T09:44:58.950Z,59.16
2023-06-24T09:47:28.422Z,59.33
2023-06-24T09:49:56.546Z,59.11
2023-06-24T09:52:25.260Z,58.69
2023-06-24T09:54:54.581Z,58.88
2023-06-24T09:57:28.564Z,58.93
2023-06-24T09:59:56.567Z,59.34
2023-06-24T10:02:25.145Z,59.07
2023-06-24T10:04:54.502Z,58.90
2023-06-24T10:07:23.221Z,59.78
2023-06-24T10:09:50.836Z,59.83
2023-06-24T10:12:18.914Z,59.71
2023-06-24T10:14:46.702Z,60.13
2023-06-24T10:17:15.397Z,60.57
2023-06-24T10:19:43.365Z,60.89
2023-06-24T10:22:12.000Z,60.58
2023-06-24T10:24:43.345Z,61.70
2023-06-24T10:27:24.939Z,61.38
2023-06-24T10:29:54.339Z,60.75
2023-06-24T10:32:23.753Z,60.46
2023-06-24T10:35:00.421Z,60.59
2023-06-24T10:37:33.635Z,60.46
2023-06-24T10:40:02.315Z,60.87
2023-06-24T10:42:43.018Z,60.41
2023-06-24T10:45:10.483Z,59.80
2023-06-24T10:47:40.532Z,59.37
2023-06-24T10:50:09.442Z,58.99
2023-06-24T10:52:57.454Z,59.80
2023-06-24T10:55:29.576Z,59.64
2023-06-24T10:58:12.134Z,57.51
2023-06-24T11:00:41.100Z,56.61
2023-06-24T11:03:13.318Z,56.90
2023-06-24T11:05:46.382Z,56.12
2023-06-24T11:08:14.223Z,56.67
2023-06-24T11:10:49.681Z,56.20
2023-06-24T11:13:21.372Z,56.00
2023-06-24T11:15:49.309Z,55.12
2023-06-24T11:18:16.955Z,55.13
2023-06-24T11:20:44.694Z,54.61
2023-06-24T11:23:13.480Z,53.67
2023-06-24T11:25:44.713Z,53.53
2023-06-24T11:28:22.925Z,54.40
2023-06-24T11:30:51.147Z,53.78
2023-06-24T11:33:29.582Z,53.85
2023-06-24T11:35:57.297Z,54.35
2023-06-24T11:38:25.694Z,55.15
2023-06-24T11:40:53.757Z,54.13
2023-06-24T11:43:21.857Z,54.09
2023-06-24T11:45:49.973Z,54.11
2023-06-24T11:48:17.541Z,54.63
2023-06-24T11:50:45.140Z,54.26
2023-06-24T11:53:13.158Z,55.49
2023-06-24T11:55:40.697Z,55.11
2023-06-24T11:58:08.472Z,56.37
2023-06-24T12:00:39.094Z,57.10
2023-06-24T12:03:11.805Z,56.47
2023-06-24T12:05:46.885Z,57.04
2023-06-24T12:08:16.983Z,57.91
2023-06-24T12:10:46.574Z,57.40
2023-06-24T12:13:14.281Z,57.88
2023-06-24T12:15:42.836Z,57.58
2023-06-24T12:18:11.274Z,58.39
2023-06-24T12:20:39.453Z,59.44
2023-06-24T12:23:07.560Z,59.49
2023-06-24T12:25:35.255Z,59.88
2023-06-24T12:28:02.877Z,60.25
2023-06-24T12:30:30.796Z,60.83
2023-06-24T12:32:58.677Z,61.04
2023-06-24T12:35:26.858Z,61.13
2023-06-24T12:37:55.517Z,61.16
2023-06-24T12:40:23.220Z,60.59
2023-06-24T12:42:50.816Z,60.28
2023-06-24T12:45:18.992Z,60.11
2023-06-24T12:47:46.741Z,59.98
2023-06-24T12:50:14.412Z,60.56
2023-06-24T12:52:42.325Z,60.81
2023-06-24T12:55:10.180Z,60.07
2023-06-24T12:57:37.889Z,59.54
2023-06-24T13:00:07.156Z,59.75
2023-06-24T13:02:35.582Z,59.64
2023-06-24T13:05:04.271Z,59.58
2023-06-24T13:07:32.797Z,59.29
2023-06-24T13:10:02.358Z,59.42
2023-06-24T13:12:30.050Z,58.92
2023-06-24T13:14:57.915Z,59.39
2023-06-24T13:17:25.991Z,59.17
2023-06-24T13:19:54.028Z,59.69
2023-06-24T13:22:21.948Z,59.96
2023-06-24T13:24:49.638Z,59.96
2023-06-24T13:27:17.990Z,60.77
2023-06-24T13:29:45.906Z,60.05
2023-06-24T13:32:13.400Z,60.02
2023-06-24T13:34:41.026Z,60.71
2023-06-24T13:37:08.906Z,60.34
2023-06-24T13:39:36.545Z,60.01
2023-06-24T13:42:04.212Z,60.11
2023-06-24T13:44:32.081Z,59.84
2023-06-24T13:46:59.758Z,60.41
2023-06-24T13:49:27.394Z,60.17
2023-06-24T13:51:55.276Z,59.93
2023-06-24T13:54:22.884Z,60.67
2023-06-24T13:56:50.482Z,60.39
2023-06-24T13:59:18.515Z,61.26
2023-06-24T14:01:46.206Z,61.20
2023-06-24T14:04:14.190Z,60.49
2023-06-24T14:06:41.817Z,61.50
2023-06-24T14:09:09.477Z,61.37
2023-06-24T14:11:37.329Z,60.04
2023-06-24T14:14:04.929Z,60.28
2023-06-24T14:16:32.502Z,61.52
2023-06-24T14:19:00.408Z,61.23
2023-06-24T14:21:28.081Z,61.84
2023-06-24T14:23:57.854Z,61.64
2023-06-24T14:26:29.294Z,62.43
2023-06-24T14:28:57.084Z,62.38
2023-06-24T14:31:24.711Z,62.45
2023-06-24T14:33:52.540Z,62.86
2023-06-24T14:36:20.099Z,63.26
2023-06-24T14:38:47.663Z,62.91
2023-06-24T14:41:15.540Z,62.60
2023-06-24T14:43:43.085Z,62.65
2023-06-24T14:46:10.686Z,61.61
2023-06-24T14:48:38.602Z,60.39
2023-06-24T14:51:06.175Z,60.58
2023-06-24T14:53:33.762Z,60.02
2023-06-24T14:56:01.624Z,60.56
2023-06-24T14:58:29.170Z,60.45
2023-06-24T15:00:56.813Z,59.78
2023-06-24T15:03:24.808Z,59.76
2023-06-24T15:05:52.385Z,59.92
2023-06-24T15:08:20.010Z,59.20
2023-06-24T15:10:50.449Z,58.78
2023-06-24T15:13:19.907Z,59.21
2023-06-24T15:15:48.586Z,59.09
2023-06-24T15:18:16.138Z,59.00
2023-06-24T15:20:43.681Z,59.05
2023-06-24T15:23:11.511Z,59.02
2023-06-24T15:25:39.036Z,59.16
2023-06-24T15:28:06.612Z,60.05
2023-06-24T15:30:34.756Z,59.60
2023-06-24T15:33:02.510Z,59.20
2023-06-24T15:35:30.075Z,59.79
2023-06-24T15:37:57.954Z,59.81
2023-06-24T15:40:25.533Z,60.46
2023-06-24T15:42:54.449Z,61.17
2023-06-24T15:45:22.549Z,61.29
2023-06-24T15:47:50.616Z,60.86
2023-06-24T15:50:18.262Z,61.08
2023-06-24T15:52:46.113Z,61.80
2023-06-24T15:55:13.671Z,61.96
2023-06-24T15:57:41.162Z,61.94
2023-06-24T16:00:09.546Z,62.69
2023-06-24T16:02:41.709Z,62.62
2023-06-24T16:05:09.892Z,62.74
2023-06-24T16:07:37.403Z,63.09
2023-06-24T16:10:06.190Z,62.91
2023-06-24T16:12:33.772Z,63.50
2023-06-24T16:15:01.382Z,63.61
2023-06-24T16:17:29.286Z,64.11
2023-06-24T16:19:56.888Z,63.58
2023-06-24T16:22:24.450Z,64.48
2023-06-24T16:24:52.890Z,63.96
2023-06-24T16:27:20.393Z,63.75
2023-06-24T16:29:47.955Z,64.14
2023-06-24T16:32:15.859Z,63.94
2023-06-24T16:34:43.489Z,63.80
2023-06-24T16:37:11.807Z,63.83
2023-06-24T16:39:39.649Z,65.14
2023-06-24T16:42:07.337Z,64.93
2023-06-24T16:44:38.257Z,64.74
2023-06-24T16:47:06.491Z,64.96
2023-06-24T16:49:34.058Z,65.51
2023-06-24T16:52:01.589Z,65.40
2023-06-24T16:54:29.409Z,65.56
2023-06-24T16:56:56.959Z,65.16
2023-06-24T16:59:24.508Z,65.60
2023-06-24T17:01:52.440Z,65.77
2023-06-24T17:04:19.994Z,66.20
2023-06-24T17:06:47.584Z,66.00
2023-06-24T17:09:15.508Z,66.41
2023-06-24T17:11:43.078Z,66.67
2023-06-24T17:14:10.673Z,66.84
2023-06-24T17:16:38.590Z,66.91
2023-06-24T17:19:07.470Z,67.11
2023-06-24T17:21:37.830Z,67.45
2023-06-24T17:24:06.633Z,67.80
2023-06-24T17:26:34.612Z,67.54
2023-06-24T17:29:02.140Z,67.57
2023-06-24T17:31:29.991Z,67.45
2023-06-24T17:33:59.407Z,67.46
2023-06-24T17:36:28.939Z,66.92
2023-06-24T17:38:56.819Z,66.86
2023-06-24T17:41:24.442Z,67.35
2023-06-24T17:43:52.028Z,67.43
2023-06-24T17:46:20.044Z,67.65
2023-06-24T17:48:47.661Z,67.53
2023-06-24T17:51:15.394Z,67.43
2023-06-24T17:53:43.316Z,67.60
2023-06-24T17:56:10.854Z,67.62
2023-06-24T17:58:38.505Z,67.98
2023-06-24T18:01:06.444Z,68.23
2023-06-24T18:03:37.210Z,67.80
2023-06-24T18:06:04.765Z,68.72
2023-06-24T18:08:32.290Z,68.75
2023-06-24T18:11:00.161Z,69.01
2023-06-24T18:13:27.719Z,68.94
2023-06-24T18:15:55.368Z,68.39
2023-06-24T18:18:23.342Z,68.21
2023-06-24T18:20:50.886Z,68.08
2023-06-24T18:23:18.380Z,68.04
2023-06-24T18:25:46.228Z,68.10
2023-06-24T18:28:13.818Z,67.79
2023-06-24T18:30:41.471Z,67.86
2023-06-24T18:33:09.370Z,67.24
2023-06-24T18:35:37.364Z,67.77
2023-06-24T18:38:05.080Z,68.08
2023-06-24T18:40:33.230Z,68.32
2023-06-24T18:43:00.974Z,68.94
2023-06-24T18:45:28.676Z,69.41
2023-06-24T18:47:57.222Z,69.88
2023-06-24T18:50:25.693Z,70.05
2023-06-24T18:52:53.198Z,70.67
2023-06-24T18:55:21.046Z,71.20
2023-06-24T18:57:48.677Z,71.41
2023-06-24T19:00:16.441Z,71.44
2023-06-24T19:02:44.583Z,71.80
2023-06-24T19:05:12.309Z,71.75
2023-06-24T19:07:39.809Z,71.74
2023-06-24T19:10:07.701Z,72.08
2023-06-24T19:12:35.244Z,72.15
2023-06-24T19:15:02.777Z,72.39
2023-06-24T19:17:31.098Z,72.59
2023-06-24T19:19:58.838Z,72.45
2023-06-24T19:22:26.592Z,72.91
2023-06-24T19:24:54.529Z,72.85
2023-06-24T19:27:22.130Z,73.17
2023-06-24T19:29:51.177Z,73.12
2023-06-24T19:32:33.547Z,73.40
2023-06-24T19:35:01.565Z,73.53
2023-06-24T19:37:31.085Z,73.67
2023-06-24T19:39:59.350Z,73.88
2023-06-24T19:42:27.014Z,74.19
2023-06-24T19:44:54.961Z,74.18
2023-06-24T19:47:22.870Z,74.26
2023-06-24T19:49:52.452Z,74.25
2023-06-24T19:52:20.850Z,74.37
2023-06-24T19:54:49.742Z,74.67
2023-06-24T19:57:21.026Z,74.67
2023-06-24T19:59:48.840Z,75.16
2023-06-24T20:02:16.442Z,75.27
2023-06-24T20:04:45.181Z,75.49
2023-06-24T20:07:14.724Z,75.91
2023-06-24T20:09:44.185Z,75.68
2023-06-24T20:12:12.012Z,75.82
2023-06-24T20:14:39.618Z,76.05
2023-06-24T20:17:08.231Z,76.08
2023-06-24T20:19:35.744Z,76.17
2023-06-24T20:22:03.421Z,76.50
2023-06-24T20:24:31.258Z,76.68
2023-06-24T20:26:58.856Z,76.93
2023-06-24T20:29:26.447Z,76.84
2023-06-24T20:31:54.388Z,77.04
2023-06-24T20:34:22.135Z,77.10
2023-06-24T20:36:49.647Z,77.02
2023-06-24T20:39:17.465Z,77.36
2023-06-24T20:41:45.033Z,77.29
2023-06-24T20:44:12.636Z,77.65
2023-06-24T20:46:40.446Z,77.75
2023-06-24T20:49:07.999Z,77.69
2023-06-24T20:51:35.558Z,77.73
2023-06-24T20:54:03.454Z,77.89
2023-06-24T20:56:31.073Z,78.15
2023-06-24T20:58:58.690Z,78.02
2023-06-24T21:01:26.571Z,78.15
2023-06-24T21:03:54.575Z,78.24
2023-06-24T21:06:22.164Z,78.28
2023-06-24T21:08:50.150Z,78.59
2023-06-24T21:11:18.517Z,78.78
2023-06-24T21:13:46.057Z,78.83
2023-06-24T21:16:13.869Z,79.00
2023-06-24T21:18:41.412Z,78.95
2023-06-24T21:21:09.095Z,78.90
2023-06-24T21:23:36.995Z,79.02
2023-06-24T21:26:04.545Z,79.15
2023-06-24T21:28:32.127Z,79.24
2023-06-24T21:31:02.590Z,79.41
2023-06-24T21:33:30.166Z,79.57
2023-06-24T21:36:00.993Z,79.51
2023-06-24T21:38:29.602Z,79.41
2023-06-24T21:40:57.183Z,79.57
2023-06-24T21:43:24.742Z,79.63
2023-06-24T21:45:52.559Z,79.81
2023-06-24T21:48:20.075Z,79.67
2023-06-24T21:50:47.814Z,79.63
2023-06-24T21:53:15.679Z,79.72
2023-06-24T21:55:43.181Z,79.90
2023-06-24T21:58:10.713Z,79.90
2023-06-24T22:00:39.011Z,79.88
2023-06-24T22:03:07.389Z,80.15
2023-06-24T22:05:36.581Z,80.10
2023-06-24T22:08:04.555Z,80.00
2023-06-24T22:10:32.755Z,79.92
2023-06-24T22:13:00.526Z,80.03
2023-06-24T22:15:28.128Z,79.96
2023-06-24T22:17:56.011Z,80.14
2023-06-24T22:20:23.674Z,80.50
2023-06-24T22:22:51.268Z,80.42
2023-06-24T22:25:19.146Z,80.69
2023-06-24T22:27:46.657Z,80.67
2023-06-24T22:30:14.295Z,80.65
2023-06-24T22:32:42.232Z,80.59
2023-06-24T22:35:09.907Z,80.49
2023-06-24T22:37:39.728Z,80.63
2023-06-24T22:40:10.260Z,80.84
2023-06-24T22:42:39.152Z,81.02
2023-06-24T22:45:07.637Z,80.87
2023-06-24T22:47:36.131Z,81.06
2023-06-24T22:50:03.834Z,80.94
2023-06-24T22:52:31.683Z,81.03
2023-06-24T22:55:00.486Z,81.06
2023-06-24T22:57:28.067Z,80.84
2023-06-24T22:59:55.988Z,81.07
2023-06-24T23:02:23.957Z,81.06
2023-06-24T23:04:51.923Z,81.08
2023-06-24T23:07:20.035Z,81.47
2023-06-24T23:09:48.142Z,81.58
2023-06-24T23:12:16.098Z,81.57
2023-06-24T23:14:44.591Z,81.63
2023-06-24T23:17:18.531Z,81.70
2023-06-24T23:19:47.285Z,81.48
2023-06-24T23:22:16.235Z,81.56
2023-06-24T23:24:53.437Z,81.88
2023-06-24T23:27:22.858Z,82.12
2023-06-24T23:29:54.422Z,82.35
2023-06-24T23:32:22.550Z,82.43
2023-06-24T23:34:50.525Z,82.62
2023-06-24T23:37:18.406Z,82.25
2023-06-24T23:39:46.559Z,82.52
2023-06-24T23:42:15.198Z,82.45
2023-06-24T23:44:42.994Z,82.62
2023-06-24T23:47:10.814Z,83.19
2023-06-24T23:49:38.381Z,83.74
2023-06-24T23:52:06.456Z,84.07
2023-06-24T23:54:34.323Z,83.96
2023-06-24T23:57:01.917Z,84.37
2023-06-24T23:59:29.433Z,84.46
